createdAt,value
2019-05-02T00:04:12.379Z,14.57
2019-05-02T00:09:13.535Z,13.73
2019-05-02T00:14:16.148Z,15.67
2019-05-02T00:19:18.469Z,16.17
2019-05-02T00:24:20.863Z,13.13
2019-05-02T00:29:23.813Z,13.60
2019-05-02T00:34:27.224Z,13.97
2019-05-02T00:39:29.485Z,14.17
2019-05-02T00:44:31.770Z,13.67
2019-05-02T00:49:35.546Z,16.00
2019-05-02T00:54:38.021Z,13.07
2019-05-02T00:59:42.385Z,13.20
2019-05-02T01:04:46.259Z,12.03
2019-05-02T01:09:48.545Z,11.70
2019-05-02T01:14:50.829Z,13.40
2019-05-02T01:19:53.104Z,13.17
2019-05-02T01:24:55.349Z,12.87
2019-05-02T01:30:08.692Z,13.40
2019-05-02T01:35:15.593Z,11.87
2019-05-02T01:40:18.965Z,17.17
2019-05-02T01:45:21.327Z,13.67
2019-05-02T01:50:23.632Z,15.37
2019-05-02T01:55:26.005Z,12.70
2019-05-02T02:00:28.384Z,13.00
2019-05-02T02:05:32.258Z,17.60
2019-05-02T02:10:34.707Z,16.48
2019-05-02T02:15:37.080Z,16.20
2019-05-02T02:20:57.510Z,14.87
2019-05-02T02:31:15.383Z,14.27
2019-05-02T02:36:30.047Z,13.40
2019-05-02T02:41:21.777Z,13.27
2019-05-02T02:46:30.865Z,16.60
2019-05-02T02:51:29.782Z,13.03
2019-05-02T02:56:34.502Z,16.07
2019-05-02T03:01:36.148Z,16.10
2019-05-02T03:06:44.601Z,13.83
2019-05-02T03:12:02.617Z,11.50
2019-05-02T03:17:04.404Z,10.37
2019-05-02T03:22:06.689Z,15.00
2019-05-02T03:27:09.028Z,13.93
2019-05-02T03:32:16.047Z,13.03
2019-05-02T03:37:15.405Z,12.27
2019-05-02T03:42:18.332Z,14.07
2019-05-02T03:47:20.615Z,13.27
2019-05-02T03:52:22.874Z,12.73
2019-05-02T03:57:33.170Z,15.27
2019-05-02T04:02:29.407Z,12.70
2019-05-02T04:07:39.397Z,13.87
2019-05-02T04:12:36.590Z,15.57
2019-05-02T04:17:39.760Z,16.47
2019-05-02T04:22:48.485Z,13.03
2019-05-02T04:27:47.070Z,13.57
2019-05-02T04:32:55.291Z,12.23
2019-05-02T04:37:53.365Z,15.03
2019-05-02T04:43:02.030Z,14.70
2019-05-02T04:48:03.977Z,14.23
2019-05-02T04:53:04.875Z,18.30
2019-05-02T04:58:08.306Z,19.23
2019-05-02T05:03:15.670Z,17.37
2019-05-02T05:08:17.494Z,16.07
2019-05-02T05:13:22.793Z,19.00
2019-05-02T05:18:23.018Z,17.03
2019-05-02T05:23:33.046Z,14.85
2019-05-02T05:28:40.483Z,17.27
2019-05-02T05:33:39.312Z,13.53
2019-05-02T05:38:41.600Z,16.10
2019-05-02T05:43:44.861Z,17.27
2019-05-02T05:48:48.469Z,18.10
2019-05-02T05:53:52.345Z,15.63
2019-05-02T05:58:58.969Z,16.10
2019-05-02T06:03:59.025Z,19.73
2019-05-02T06:09:01.327Z,12.93
2019-05-02T06:14:04.647Z,18.07
2019-05-02T06:19:08.592Z,17.20
2019-05-02T06:24:15.642Z,20.10
2019-05-02T06:29:18.579Z,12.33
2019-05-02T06:34:20.598Z,16.13
2019-05-02T06:39:27.178Z,13.83
2019-05-02T06:44:26.952Z,14.50
2019-05-02T06:49:29.324Z,13.13
2019-05-02T06:54:31.671Z,11.35
2019-05-02T06:59:33.963Z,13.22
2019-05-02T07:04:36.323Z,12.50
2019-05-02T07:09:40.972Z,13.20
2019-05-02T07:14:45.594Z,13.83
2019-05-02T07:19:48.280Z,16.20
2019-05-02T07:24:50.544Z,12.95
2019-05-02T07:29:57.849Z,13.58
2019-05-02T07:34:56.974Z,17.40
2019-05-02T07:39:59.244Z,19.17
2019-05-02T07:45:04.316Z,15.75
2019-05-02T07:50:10.490Z,16.95
2019-05-02T07:55:10.519Z,14.60
2019-05-02T08:00:14.444Z,17.67
2019-05-02T08:05:21.877Z,19.02
2019-05-02T08:10:23.694Z,16.73
2019-05-02T08:15:25.628Z,24.90
2019-05-02T08:20:27.903Z,16.15
2019-05-02T08:25:30.204Z,18.82
2019-05-02T08:30:35.354Z,18.07
2019-05-02T08:35:38.124Z,17.20
2019-05-02T08:40:42.230Z,16.52
2019-05-02T08:45:44.462Z,20.82
2019-05-02T08:50:46.770Z,16.85
2019-05-02T08:55:49.124Z,15.43
2019-05-02T09:00:51.899Z,18.82
2019-05-02T09:06:05.297Z,15.20
2019-05-02T09:10:58.198Z,25.25
2019-05-02T09:16:03.585Z,29.07
2019-05-02T09:21:04.593Z,28.87
2019-05-02T09:26:06.939Z,26.77
2019-05-02T09:31:09.300Z,31.40
2019-05-02T09:36:11.996Z,30.95
2019-05-02T09:41:19.018Z,26.30
2019-05-02T09:46:18.392Z,36.23
2019-05-02T09:51:21.627Z,29.60
2019-05-02T09:56:24.073Z,38.15
2019-05-02T10:01:31.688Z,30.02
2019-05-02T10:06:34.263Z,32.83
2019-05-02T10:11:36.747Z,34.53
2019-05-02T10:16:39.114Z,31.93
2019-05-02T10:21:42.206Z,37.87
2019-05-02T10:26:44.581Z,35.23
2019-05-02T10:31:47.033Z,28.47
2019-05-02T10:36:54.167Z,30.08
2019-05-02T10:41:53.427Z,32.98
2019-05-02T10:46:57.352Z,28.35
2019-05-02T10:51:59.647Z,29.83
2019-05-02T10:57:02.390Z,29.00
2019-05-02T11:02:09.853Z,27.15
2019-05-02T11:07:17.123Z,25.23
2019-05-02T11:12:23.953Z,29.25
2019-05-02T11:17:36.487Z,25.83
2019-05-02T11:22:39.097Z,30.75
2019-05-02T11:27:41.920Z,29.77
2019-05-02T11:32:44.385Z,30.68
2019-05-02T11:37:46.713Z,24.32
2019-05-02T11:42:49.068Z,26.82
2019-05-02T11:47:54.447Z,23.77
2019-05-02T11:52:55.387Z,21.50
2019-05-02T11:58:00.836Z,24.43
2019-05-02T12:03:09.278Z,22.77
2019-05-02T12:08:12.163Z,23.47
2019-05-02T12:13:16.106Z,19.70
2019-05-02T12:18:20.558Z,23.12
2019-05-02T12:23:22.811Z,18.85
2019-05-02T12:28:25.401Z,20.30
2019-05-02T12:33:48.536Z,20.95
2019-05-02T12:38:52.647Z,19.03
2019-05-02T12:43:54.902Z,21.90
2019-05-02T12:48:58.475Z,24.82
2019-05-02T12:54:02.325Z,20.90
2019-05-02T12:59:04.867Z,22.90
2019-05-02T13:04:08.909Z,19.50
2019-05-02T13:09:12.719Z,18.45
2019-05-02T13:14:19.444Z,15.08
2019-05-02T13:19:23.713Z,14.70
2019-05-02T13:24:29.349Z,12.35
2019-05-02T13:29:32.190Z,17.43
2019-05-02T13:34:55.484Z,20.43
2019-05-02T13:39:57.022Z,20.52
2019-05-02T13:45:16.248Z,19.37
2019-05-02T13:50:19.094Z,19.98
2019-05-02T13:55:23.684Z,14.87
2019-05-02T14:00:28.023Z,14.17
2019-05-02T14:05:31.758Z,18.92
2019-05-02T14:10:39.225Z,17.77
2019-05-02T14:15:41.914Z,12.83
2019-05-02T14:20:43.851Z,14.93
2019-05-02T14:25:46.214Z,15.03
2019-05-02T14:30:48.519Z,11.75
2019-05-02T14:35:52.598Z,15.18
2019-05-02T14:41:12.568Z,14.10
2019-05-02T14:46:17.641Z,19.15
2019-05-02T14:51:22.892Z,16.30
2019-05-02T14:56:28.252Z,17.10
2019-05-02T15:01:32.156Z,20.32
2019-05-02T15:06:38.296Z,15.53
2019-05-02T15:11:43.056Z,9.48
2019-05-02T15:16:45.308Z,9.53
2019-05-02T15:21:54.421Z,11.65
2019-05-02T15:26:52.509Z,12.80
2019-05-02T15:32:12.643Z,9.83
2019-05-02T15:37:16.961Z,9.10
2019-05-02T15:42:22.901Z,10.57
2019-05-02T15:47:23.268Z,11.68
2019-05-02T15:52:30.211Z,9.65
2019-05-02T15:57:43.118Z,9.53
2019-05-02T16:02:36.645Z,12.43
2019-05-02T16:07:43.276Z,10.30
2019-05-02T16:12:44.978Z,10.10
2019-05-02T16:17:47.298Z,8.35
2019-05-02T16:22:50.031Z,7.28
2019-05-02T16:27:52.912Z,9.08
2019-05-02T16:32:56.967Z,8.93
2019-05-02T16:43:16.744Z,7.42
2019-05-02T16:48:19.029Z,9.05
2019-05-02T16:53:22.657Z,9.93
2019-05-02T16:58:25.592Z,13.23
2019-05-02T17:03:27.987Z,14.30
2019-05-02T17:08:35.032Z,11.30
2019-05-02T17:13:38.011Z,11.90
2019-05-02T17:18:41.683Z,15.15
2019-05-02T17:23:46.839Z,12.75
2019-05-02T17:28:48.898Z,17.07
2019-05-02T17:33:52.976Z,17.05
2019-05-02T17:38:59.211Z,18.55
2019-05-02T17:44:00.019Z,19.40
2019-05-02T17:49:03.512Z,20.50
2019-05-02T17:54:07.556Z,18.10
2019-05-02T17:59:11.690Z,18.80
2019-05-02T18:04:16.377Z,20.47
2019-05-02T18:09:18.337Z,21.12
2019-05-02T18:14:22.122Z,24.47
2019-05-02T18:19:25.182Z,20.70
2019-05-02T18:24:27.655Z,21.93
2019-05-02T18:29:29.956Z,25.62
2019-05-02T18:34:32.475Z,27.10
2019-05-02T18:39:41.841Z,29.37
2019-05-02T18:44:38.903Z,29.25
2019-05-02T18:49:41.922Z,28.85
2019-05-02T18:54:47.395Z,30.10
2019-05-02T18:59:51.920Z,29.67
2019-05-02T19:04:52.742Z,31.33
2019-05-02T19:09:58.891Z,36.23
2019-05-02T19:15:03.279Z,37.90
2019-05-02T19:20:06.166Z,40.05
2019-05-02T19:25:08.093Z,36.93
2019-05-02T19:30:11.316Z,44.58
2019-05-02T19:35:13.677Z,37.60
2019-05-02T19:40:20.123Z,41.35
2019-05-02T19:45:21.909Z,44.15
2019-05-02T19:50:32.300Z,43.23
2019-05-02T19:55:32.623Z,43.37
2019-05-02T20:00:36.648Z,45.88
2019-05-02T20:05:39.611Z,43.25
2019-05-02T20:10:42.330Z,44.80
2019-05-02T20:15:49.085Z,47.13
2019-05-02T20:21:05.561Z,45.25
2019-05-02T20:31:12.332Z,50.87
2019-05-02T20:36:14.867Z,47.98
2019-05-02T20:41:17.247Z,47.93
2019-05-02T20:46:21.702Z,47.17
2019-05-02T20:51:23.741Z,46.88
2019-05-02T20:56:26.092Z,42.20
2019-05-02T21:01:28.403Z,47.13
2019-05-02T21:06:40.812Z,50.13
2019-05-02T21:11:41.749Z,57.80
2019-05-02T21:16:44.261Z,53.97
2019-05-02T21:21:46.956Z,51.83
2019-05-02T21:26:49.312Z,57.00
2019-05-02T21:31:52.093Z,53.40
2019-05-02T21:36:54.438Z,53.13
2019-05-02T21:41:56.747Z,54.70
2019-05-02T21:46:59.038Z,59.23
2019-05-02T21:52:22.675Z,63.03
2019-05-02T21:57:25.087Z,58.73
2019-05-02T22:07:35.657Z,54.07
2019-05-02T22:12:37.961Z,49.80
2019-05-02T22:17:41.613Z,49.07
2019-05-02T22:22:43.961Z,52.93
2019-05-02T22:27:46.244Z,54.77
2019-05-02T22:32:49.432Z,48.70
2019-05-02T22:37:53.376Z,49.93
2019-05-02T22:42:55.751Z,48.80
2019-05-02T22:47:58.372Z,49.60
2019-05-02T22:53:00.692Z,54.47
2019-05-02T22:58:03.027Z,45.83
2019-05-02T23:03:05.328Z,48.37
2019-05-02T23:08:07.862Z,41.40
2019-05-02T23:13:10.387Z,45.33
2019-05-02T23:18:12.766Z,43.33
2019-05-02T23:23:15.057Z,44.30
2019-05-02T23:28:19.071Z,39.23
2019-05-02T23:33:23.423Z,39.47
2019-05-02T23:38:25.464Z,40.40
2019-05-02T23:43:28.287Z,39.63
2019-05-02T23:48:32.538Z,41.83
2019-05-02T23:53:34.692Z,40.70
2019-05-02T23:58:37.023Z,36.77
